createdAt,value
2019-01-29T00:00:26.049Z,3.65
2019-01-29T00:02:54.452Z,3.20
2019-01-29T00:05:22.884Z,3.10
2019-01-29T00:07:51.299Z,3.10
2019-01-29T00:10:19.720Z,2.85
2019-01-29T00:12:48.133Z,2.90
2019-01-29T00:15:16.557Z,2.90
2019-01-29T00:17:44.983Z,2.08
2019-01-29T00:20:13.763Z,2.80
2019-01-29T00:22:42.490Z,2.25
2019-01-29T00:25:14.417Z,2.60
2019-01-29T00:27:42.829Z,2.75
2019-01-29T00:30:15.509Z,2.40
2019-01-29T00:32:44.142Z,2.20
2019-01-29T00:35:12.664Z,2.50
2019-01-29T00:37:41.092Z,2.12
2019-01-29T00:40:14.758Z,2.70
2019-01-29T00:42:43.194Z,2.35
2019-01-29T00:45:14.146Z,2.52
2019-01-29T00:47:42.577Z,2.22
2019-01-29T00:50:13.289Z,2.62
2019-01-29T00:52:42.432Z,2.60
2019-01-29T00:55:13.556Z,2.47
2019-01-29T00:57:42.041Z,2.20
2019-01-29T01:00:24.962Z,2.00
2019-01-29T01:02:53.421Z,2.52
2019-01-29T01:05:21.899Z,2.70
2019-01-29T01:07:50.739Z,2.30
2019-01-29T01:10:20.896Z,2.30
2019-01-29T01:12:49.316Z,2.42
2019-01-29T01:15:17.868Z,2.35
2019-01-29T01:17:46.606Z,2.15
2019-01-29T01:20:17.065Z,2.90
2019-01-29T01:22:51.157Z,2.52
2019-01-29T01:25:16.327Z,2.30
2019-01-29T01:27:44.929Z,2.72
2019-01-29T01:30:15.986Z,2.50
2019-01-29T01:32:44.727Z,2.17
2019-01-29T01:35:13.313Z,2.27
2019-01-29T01:37:42.280Z,2.50
2019-01-29T01:40:16.597Z,1.80
2019-01-29T01:42:45.023Z,3.15
2019-01-29T01:45:13.564Z,2.70
2019-01-29T01:47:41.984Z,2.40
2019-01-29T01:50:12.797Z,2.12
2019-01-29T01:52:41.437Z,2.67
2019-01-29T01:55:12.349Z,2.87
2019-01-29T01:57:40.755Z,3.05
2019-01-29T02:00:15.044Z,2.72
2019-01-29T02:02:43.521Z,2.42
2019-01-29T02:05:12.010Z,2.72
2019-01-29T02:07:40.425Z,1.80
2019-01-29T02:10:11.928Z,2.60
2019-01-29T02:12:40.356Z,2.83
2019-01-29T02:15:10.817Z,2.42
2019-01-29T02:17:39.453Z,2.65
2019-01-29T02:20:13.654Z,2.25
2019-01-29T02:22:42.318Z,3.15
2019-01-29T02:25:10.889Z,3.17
2019-01-29T02:27:39.316Z,2.40
2019-01-29T02:30:11.316Z,2.02
2019-01-29T02:32:39.981Z,2.50
2019-01-29T02:35:08.502Z,2.60
2019-01-29T02:37:36.921Z,2.22
2019-01-29T02:40:08.438Z,2.50
2019-01-29T02:42:36.840Z,2.50
2019-01-29T02:45:08.374Z,2.50
2019-01-29T02:47:36.782Z,2.35
2019-01-29T02:50:07.771Z,2.98
2019-01-29T02:52:36.432Z,2.27
2019-01-29T02:55:07.117Z,2.30
2019-01-29T02:57:35.802Z,2.25
2019-01-29T03:00:16.070Z,2.40
2019-01-29T03:02:44.499Z,3.00
2019-01-29T03:05:14.768Z,3.30
2019-01-29T03:07:43.193Z,2.65
2019-01-29T03:10:14.778Z,2.47
2019-01-29T03:12:43.192Z,2.95
2019-01-29T03:15:14.922Z,2.25
2019-01-29T03:17:43.402Z,3.00
2019-01-29T03:20:13.761Z,3.58
2019-01-29T03:22:42.315Z,2.72
2019-01-29T03:25:11.762Z,3.12
2019-01-29T03:27:40.258Z,2.30
2019-01-29T03:30:12.034Z,2.45
2019-01-29T03:32:40.458Z,2.50
2019-01-29T03:35:09.507Z,2.65
2019-01-29T03:37:37.929Z,2.58
2019-01-29T03:40:09.486Z,2.60
2019-01-29T03:42:37.910Z,2.47
2019-01-29T03:45:09.909Z,2.80
2019-01-29T03:47:38.577Z,2.62
2019-01-29T03:50:09.654Z,2.72
2019-01-29T03:52:38.083Z,2.08
2019-01-29T03:55:08.098Z,2.45
2019-01-29T03:57:36.518Z,2.20
2019-01-29T04:00:08.043Z,2.52
2019-01-29T04:02:36.759Z,2.58
2019-01-29T04:05:06.197Z,2.83
2019-01-29T04:07:34.698Z,3.60
2019-01-29T04:10:03.357Z,2.77
2019-01-29T04:12:31.776Z,3.08
2019-01-29T04:15:00.280Z,3.05
2019-01-29T04:17:28.795Z,2.80
2019-01-29T04:19:57.426Z,3.08
2019-01-29T04:22:26.139Z,2.55
2019-01-29T04:24:54.803Z,2.62
2019-01-29T04:27:23.496Z,2.77
2019-01-29T04:29:51.948Z,2.35
2019-01-29T04:32:20.362Z,2.83
2019-01-29T04:34:48.812Z,3.37
2019-01-29T04:37:17.500Z,3.27
2019-01-29T04:39:46.203Z,2.95
2019-01-29T04:42:14.861Z,3.05
2019-01-29T04:44:43.558Z,3.62
2019-01-29T04:47:12.226Z,3.12
2019-01-29T04:49:40.646Z,2.45
2019-01-29T04:52:09.368Z,3.22
2019-01-29T04:54:37.812Z,3.40
2019-01-29T04:57:06.478Z,2.47
2019-01-29T04:59:34.943Z,3.02
2019-01-29T05:02:03.414Z,3.60
2019-01-29T05:04:32.106Z,4.75
2019-01-29T05:07:00.803Z,4.22
2019-01-29T05:09:29.470Z,3.77
2019-01-29T05:11:57.878Z,3.00
2019-01-29T05:14:26.554Z,4.72
2019-01-29T05:16:55.218Z,3.50
2019-01-29T05:19:23.931Z,4.40
2019-01-29T05:21:52.381Z,3.90
2019-01-29T05:24:20.815Z,4.72
2019-01-29T05:26:49.268Z,4.70
2019-01-29T05:29:17.686Z,5.22
2019-01-29T05:31:46.097Z,4.87
2019-01-29T05:34:14.526Z,3.37
2019-01-29T05:36:43.183Z,4.22
2019-01-29T05:39:11.608Z,3.90
2019-01-29T05:41:40.275Z,2.40
2019-01-29T05:44:08.765Z,3.12
2019-01-29T05:46:37.418Z,3.50
2019-01-29T05:49:05.908Z,3.15
2019-01-29T05:51:34.633Z,3.10
2019-01-29T05:54:03.083Z,3.30
2019-01-29T05:56:31.745Z,2.80
2019-01-29T05:59:00.154Z,2.92
2019-01-29T06:01:28.578Z,2.80
2019-01-29T06:03:56.990Z,2.83
2019-01-29T06:06:25.422Z,3.52
2019-01-29T06:08:53.834Z,2.50
2019-01-29T06:11:22.263Z,3.25
2019-01-29T06:13:50.669Z,3.55
2019-01-29T06:16:19.133Z,2.70
2019-01-29T06:18:47.574Z,3.00
2019-01-29T06:21:16.002Z,2.80
2019-01-29T06:23:44.417Z,3.22
2019-01-29T06:26:12.837Z,2.95
2019-01-29T06:28:41.245Z,3.20
2019-01-29T06:31:09.891Z,3.52
2019-01-29T06:33:38.587Z,2.75
2019-01-29T06:36:07.044Z,3.60
2019-01-29T06:38:35.710Z,3.10
2019-01-29T06:41:04.570Z,3.35
2019-01-29T06:43:33.279Z,3.37
2019-01-29T06:46:01.701Z,3.45
2019-01-29T06:48:30.118Z,3.00
2019-01-29T06:50:58.802Z,3.65
2019-01-29T06:53:27.240Z,2.87
2019-01-29T06:55:55.653Z,2.52
2019-01-29T06:58:24.082Z,2.95
2019-01-29T07:00:52.493Z,3.92
2019-01-29T07:03:21.174Z,2.42
2019-01-29T07:05:49.589Z,2.65
2019-01-29T07:08:18.267Z,3.05
2019-01-29T07:10:46.685Z,3.20
2019-01-29T07:13:15.357Z,2.65
2019-01-29T07:15:57.194Z,2.90
2019-01-29T07:18:30.170Z,2.60
2019-01-29T07:20:58.635Z,2.22
2019-01-29T07:23:27.337Z,2.60
2019-01-29T07:25:55.831Z,2.65
2019-01-29T07:28:24.250Z,2.47
2019-01-29T07:30:52.767Z,2.67
2019-01-29T07:33:21.419Z,2.65
2019-01-29T07:35:50.149Z,2.70
2019-01-29T07:38:18.619Z,2.22
2019-01-29T07:40:47.300Z,2.60
2019-01-29T07:43:16.042Z,2.37
2019-01-29T07:45:44.674Z,3.12
2019-01-29T07:48:13.248Z,1.90
2019-01-29T07:50:42.105Z,2.40
2019-01-29T07:53:11.881Z,2.30
2019-01-29T07:55:40.562Z,2.12
2019-01-29T07:58:09.250Z,2.37
2019-01-29T08:00:37.765Z,2.60
2019-01-29T08:03:06.298Z,2.85
2019-01-29T08:05:34.992Z,2.60
2019-01-29T08:08:03.781Z,3.00
2019-01-29T08:10:32.276Z,2.20
2019-01-29T08:13:00.698Z,2.20
2019-01-29T08:15:29.108Z,2.77
2019-01-29T08:17:57.811Z,3.00
2019-01-29T08:20:26.624Z,2.25
2019-01-29T08:22:55.082Z,2.58
2019-01-29T08:25:23.505Z,2.50
2019-01-29T08:27:51.933Z,2.87
2019-01-29T08:30:20.720Z,2.00
2019-01-29T08:32:49.175Z,2.85
2019-01-29T08:35:18.541Z,2.22
2019-01-29T08:37:47.396Z,1.90
2019-01-29T08:40:16.949Z,2.60
2019-01-29T08:42:45.427Z,2.30
2019-01-29T08:45:20.670Z,2.00
2019-01-29T08:47:49.190Z,2.50
2019-01-29T08:50:25.710Z,2.10
2019-01-29T08:52:54.356Z,2.17
2019-01-29T08:55:22.963Z,2.50
2019-01-29T08:57:51.370Z,2.17
2019-01-29T09:00:21.235Z,2.30
2019-01-29T09:02:50.074Z,2.47
2019-01-29T09:05:18.561Z,2.35
2019-01-29T09:07:47.290Z,2.30
2019-01-29T09:10:18.833Z,2.08
2019-01-29T09:12:47.521Z,1.82
2019-01-29T09:15:20.623Z,1.95
2019-01-29T09:17:49.858Z,2.37
2019-01-29T09:20:20.421Z,2.50
2019-01-29T09:22:48.944Z,2.20
2019-01-29T09:25:20.860Z,3.12
2019-01-29T09:27:47.650Z,1.50
2019-01-29T09:30:17.734Z,1.98
2019-01-29T09:32:46.586Z,1.57
2019-01-29T09:35:15.026Z,1.42
2019-01-29T09:37:43.459Z,1.00
2019-01-29T09:40:14.812Z,2.08
2019-01-29T09:42:43.235Z,1.22
2019-01-29T09:45:14.495Z,1.30
2019-01-29T09:47:42.948Z,1.52
2019-01-29T09:50:14.495Z,0.80
2019-01-29T09:52:43.196Z,1.40
2019-01-29T09:55:14.732Z,1.20
2019-01-29T09:57:43.464Z,1.15
2019-01-29T10:00:17.397Z,1.25
2019-01-29T10:02:45.860Z,1.67
2019-01-29T10:05:14.675Z,1.75
2019-01-29T10:07:43.624Z,1.77
2019-01-29T10:10:13.105Z,1.60
2019-01-29T10:12:41.606Z,1.87
2019-01-29T10:15:13.138Z,1.10
2019-01-29T10:17:41.890Z,1.98
2019-01-29T10:20:10.483Z,1.60
2019-01-29T10:22:39.211Z,1.62
2019-01-29T10:25:11.132Z,1.30
2019-01-29T10:27:39.580Z,1.87
2019-01-29T10:30:11.342Z,1.05
2019-01-29T10:32:39.774Z,1.07
2019-01-29T10:35:14.236Z,1.20
2019-01-29T10:37:42.667Z,1.30
2019-01-29T10:40:16.415Z,1.53
2019-01-29T10:42:44.922Z,1.10
2019-01-29T10:45:18.034Z,1.50
2019-01-29T10:47:46.471Z,1.20
2019-01-29T10:50:19.934Z,0.90
2019-01-29T10:52:48.862Z,1.70
2019-01-29T10:55:17.662Z,1.00
2019-01-29T10:57:46.424Z,1.10
2019-01-29T11:00:24.209Z,0.88
2019-01-29T11:02:52.983Z,1.32
2019-01-29T11:05:24.103Z,1.10
2019-01-29T11:07:52.603Z,1.13
2019-01-29T11:10:21.651Z,0.97
2019-01-29T11:12:50.169Z,0.77
2019-01-29T11:15:24.760Z,1.00
2019-01-29T11:17:53.612Z,1.03
2019-01-29T11:20:22.574Z,0.87
2019-01-29T11:22:51.067Z,0.80
2019-01-29T11:25:24.847Z,1.10
2019-01-29T11:27:53.265Z,1.20
2019-01-29T11:30:24.207Z,1.00
2019-01-29T11:32:53.144Z,1.07
2019-01-29T11:35:21.685Z,1.00
2019-01-29T11:37:50.499Z,1.40
2019-01-29T11:40:21.967Z,1.17
2019-01-29T11:42:50.631Z,1.57
2019-01-29T11:45:24.954Z,0.80
2019-01-29T11:47:53.368Z,0.80
2019-01-29T11:50:21.848Z,0.97
2019-01-29T11:52:50.566Z,0.97
2019-01-29T11:55:27.970Z,1.03
2019-01-29T11:57:53.833Z,0.90
2019-01-29T12:00:35.582Z,0.90
2019-01-29T12:03:04.697Z,0.90
2019-01-29T12:05:33.225Z,0.80
2019-01-29T12:08:01.980Z,1.10
2019-01-29T12:10:30.470Z,0.80
2019-01-29T12:12:59.256Z,0.97
2019-01-29T12:15:28.062Z,0.90
2019-01-29T12:17:56.544Z,0.93
2019-01-29T12:20:25.267Z,1.30
2019-01-29T12:22:53.964Z,1.37
2019-01-29T12:25:22.684Z,1.00
2019-01-29T12:27:51.146Z,0.93
2019-01-29T12:30:21.662Z,1.00
2019-01-29T12:32:51.260Z,1.30
2019-01-29T12:35:20.121Z,1.17
2019-01-29T12:37:48.858Z,1.00
2019-01-29T12:40:17.470Z,0.80
2019-01-29T12:42:46.199Z,1.40
2019-01-29T12:45:19.346Z,1.03
2019-01-29T12:47:48.407Z,0.80
2019-01-29T12:50:20.080Z,1.00
2019-01-29T12:52:52.839Z,1.20
2019-01-29T12:55:21.278Z,0.97
2019-01-29T12:57:49.765Z,0.83
2019-01-29T13:00:19.735Z,1.20
2019-01-29T13:02:48.233Z,0.97
2019-01-29T13:05:16.820Z,1.10
2019-01-29T13:07:45.485Z,0.80
2019-01-29T13:10:22.577Z,1.77
2019-01-29T13:12:51.008Z,1.03
2019-01-29T13:15:30.594Z,1.10
2019-01-29T13:18:01.183Z,1.17
2019-01-29T13:20:29.836Z,0.90
2019-01-29T13:22:58.631Z,1.00
2019-01-29T13:25:27.194Z,1.20
2019-01-29T13:27:55.711Z,0.80
2019-01-29T13:30:34.732Z,0.90
2019-01-29T13:33:04.803Z,0.80
2019-01-29T13:35:35.150Z,0.77
2019-01-29T13:38:04.885Z,0.60
2019-01-29T13:40:33.320Z,1.03
2019-01-29T13:43:02.060Z,1.20
2019-01-29T13:45:30.762Z,0.70
2019-01-29T13:47:59.227Z,0.90
2019-01-29T13:50:33.664Z,0.60
2019-01-29T13:53:02.485Z,0.73
2019-01-29T13:55:30.928Z,0.80
2019-01-29T13:57:59.421Z,0.67
2019-01-29T14:00:30.420Z,0.60
2019-01-29T14:02:59.208Z,0.60
2019-01-29T14:05:27.886Z,0.70
2019-01-29T14:07:56.354Z,0.73
2019-01-29T14:10:24.798Z,0.90
2019-01-29T14:12:53.377Z,0.60
2019-01-29T14:15:24.362Z,0.90
2019-01-29T14:17:52.810Z,0.73
2019-01-29T14:20:21.354Z,0.80
2019-01-29T14:22:49.826Z,1.17
2019-01-29T14:25:18.243Z,0.60
2019-01-29T14:27:46.662Z,0.73
2019-01-29T14:30:18.362Z,0.87
2019-01-29T14:32:47.042Z,0.60
2019-01-29T14:35:15.812Z,0.60
2019-01-29T14:37:59.504Z,0.70
2019-01-29T14:40:28.101Z,0.80
2019-01-29T14:42:56.602Z,0.90
2019-01-29T14:45:26.987Z,0.60
2019-01-29T14:47:55.873Z,0.70
2019-01-29T14:50:25.426Z,0.70
2019-01-29T14:52:53.883Z,0.77
2019-01-29T14:55:22.460Z,0.77
2019-01-29T14:57:50.870Z,0.90
2019-01-29T15:00:31.811Z,0.53
2019-01-29T15:03:00.283Z,0.60
2019-01-29T15:05:28.767Z,0.63
2019-01-29T15:07:57.292Z,0.90
2019-01-29T15:10:28.582Z,0.63
2019-01-29T15:12:57.149Z,1.22
2019-01-29T15:15:28.021Z,0.70
2019-01-29T15:18:14.003Z,0.60
2019-01-29T15:20:42.435Z,0.50
2019-01-29T15:23:10.893Z,0.90
2019-01-29T15:25:39.327Z,0.78
2019-01-29T15:28:07.788Z,0.78
2019-01-29T15:30:36.366Z,0.60
2019-01-29T15:33:05.113Z,0.60
2019-01-29T15:35:33.773Z,0.70
2019-01-29T15:38:02.204Z,0.40
2019-01-29T15:40:30.870Z,0.53
2019-01-29T15:42:59.370Z,0.50
2019-01-29T15:45:28.647Z,0.53
2019-01-29T15:47:57.152Z,0.90
2019-01-29T15:50:27.894Z,0.93
2019-01-29T15:52:56.386Z,0.70
2019-01-29T15:55:24.962Z,0.50
2019-01-29T15:57:53.458Z,1.15
2019-01-29T16:00:27.896Z,1.05
2019-01-29T16:02:56.327Z,1.00
2019-01-29T16:05:27.464Z,1.47
2019-01-29T16:07:56.052Z,1.80
2019-01-29T16:10:27.702Z,1.27
2019-01-29T16:12:56.114Z,2.12
2019-01-29T16:15:26.451Z,2.40
2019-01-29T16:17:55.007Z,2.12
2019-01-29T16:20:24.634Z,2.27
2019-01-29T16:22:53.123Z,2.35
2019-01-29T16:25:32.278Z,2.47
2019-01-29T16:28:01.042Z,2.52
2019-01-29T16:30:30.944Z,2.30
2019-01-29T16:32:59.389Z,2.27
2019-01-29T16:35:39.811Z,2.00
2019-01-29T16:38:09.068Z,2.70
2019-01-29T16:40:40.566Z,2.37
2019-01-29T16:43:09.140Z,2.25
2019-01-29T16:45:38.158Z,2.37
2019-01-29T16:48:08.326Z,2.35
2019-01-29T16:50:37.183Z,2.70
2019-01-29T16:53:07.999Z,2.25
2019-01-29T16:55:36.902Z,2.40
2019-01-29T16:58:06.670Z,2.50
2019-01-29T17:00:39.903Z,2.67
2019-01-29T17:03:08.839Z,2.62
2019-01-29T17:05:38.100Z,3.00
2019-01-29T17:08:06.853Z,3.72
2019-01-29T17:10:35.546Z,3.25
2019-01-29T17:13:04.722Z,2.95
2019-01-29T17:15:37.874Z,2.70
2019-01-29T17:18:09.157Z,2.20
2019-01-29T17:20:45.633Z,2.33
2019-01-29T17:23:14.319Z,2.77
2019-01-29T17:25:43.409Z,2.90
2019-01-29T17:28:12.048Z,2.40
2019-01-29T17:30:43.084Z,2.50
2019-01-29T17:33:13.837Z,2.30
2019-01-29T17:35:42.828Z,2.50
2019-01-29T17:38:11.696Z,2.00
2019-01-29T17:40:40.466Z,3.10
2019-01-29T17:43:09.930Z,2.75
2019-01-29T17:45:44.022Z,3.17
2019-01-29T17:48:12.896Z,3.17
2019-01-29T17:50:43.448Z,2.37
2019-01-29T17:53:12.558Z,3.72
2019-01-29T17:55:42.632Z,3.00
2019-01-29T17:58:12.044Z,2.77
2019-01-29T18:00:42.475Z,3.35
2019-01-29T18:03:11.427Z,3.70
2019-01-29T18:05:40.828Z,2.60
2019-01-29T18:08:10.140Z,2.75
2019-01-29T18:10:38.852Z,2.80
2019-01-29T18:13:07.678Z,3.08
2019-01-29T18:15:36.888Z,3.60
2019-01-29T18:18:06.010Z,2.77
2019-01-29T18:20:34.739Z,2.90
2019-01-29T18:23:05.852Z,3.02
2019-01-29T18:25:34.383Z,2.80
2019-01-29T18:28:03.130Z,2.47
2019-01-29T18:30:34.166Z,2.47
2019-01-29T18:33:07.527Z,2.60
2019-01-29T18:35:36.427Z,2.60
2019-01-29T18:38:05.473Z,3.17
2019-01-29T18:40:39.682Z,2.50
2019-01-29T18:43:08.831Z,2.65
2019-01-29T18:45:37.879Z,3.27
2019-01-29T18:48:06.947Z,3.22
2019-01-29T18:50:35.817Z,2.25
2019-01-29T18:53:05.346Z,2.25
2019-01-29T18:55:34.627Z,1.90
2019-01-29T18:58:11.538Z,2.98
2019-01-29T19:00:34.647Z,2.65
2019-01-29T19:03:04.127Z,2.92
2019-01-29T19:05:33.194Z,2.15
2019-01-29T19:08:02.404Z,2.17
2019-01-29T19:10:31.430Z,2.55
2019-01-29T19:13:00.739Z,1.92
2019-01-29T19:15:30.008Z,2.40
2019-01-29T19:17:59.354Z,2.55
2019-01-29T19:20:28.667Z,2.70
2019-01-29T19:22:58.096Z,2.45
2019-01-29T19:25:27.624Z,2.90
2019-01-29T19:27:57.111Z,2.00
2019-01-29T19:30:31.778Z,3.02
2019-01-29T19:33:02.921Z,2.45
2019-01-29T19:35:32.512Z,3.55
2019-01-29T19:38:01.560Z,2.58
2019-01-29T19:40:31.062Z,3.65
2019-01-29T19:43:00.456Z,3.05
2019-01-29T19:45:32.427Z,3.10
2019-01-29T19:48:01.887Z,2.40
2019-01-29T19:50:32.868Z,2.75
2019-01-29T19:53:02.218Z,3.52
2019-01-29T19:55:32.009Z,2.75
2019-01-29T19:58:08.839Z,3.40
2019-01-29T20:00:38.028Z,2.45
2019-01-29T20:03:07.905Z,2.90
2019-01-29T20:05:37.548Z,3.15
2019-01-29T20:08:07.050Z,3.67
2019-01-29T20:10:37.115Z,3.33
2019-01-29T20:13:07.589Z,3.75
2019-01-29T20:15:37.081Z,2.90
2019-01-29T20:18:06.397Z,3.12
2019-01-29T20:20:40.224Z,3.37
2019-01-29T20:23:09.590Z,3.40
2019-01-29T20:25:39.049Z,3.17
2019-01-29T20:28:08.086Z,3.10
2019-01-29T20:30:39.312Z,3.95
2019-01-29T20:33:11.225Z,3.62
2019-01-29T20:35:40.248Z,3.83
2019-01-29T20:38:09.071Z,3.60
2019-01-29T20:40:38.140Z,3.27
2019-01-29T20:43:06.740Z,4.03
2019-01-29T20:45:35.499Z,3.40
2019-01-29T20:48:04.202Z,4.53
2019-01-29T20:50:37.457Z,4.20
2019-01-29T20:53:06.081Z,3.00
2019-01-29T20:55:34.527Z,3.52
2019-01-29T20:58:03.205Z,3.20
2019-01-29T21:00:34.318Z,3.70
2019-01-29T21:03:03.016Z,3.80
2019-01-29T21:05:31.703Z,3.17
2019-01-29T21:08:00.683Z,3.83
2019-01-29T21:10:29.572Z,3.72
2019-01-29T21:12:58.394Z,3.25
2019-01-29T21:15:37.575Z,3.20
2019-01-29T21:17:58.543Z,3.42
2019-01-29T21:20:29.310Z,3.75
2019-01-29T21:22:58.357Z,3.00
2019-01-29T21:25:26.853Z,3.85
2019-01-29T21:27:55.654Z,3.22
2019-01-29T21:30:29.857Z,3.70
2019-01-29T21:32:58.512Z,3.42
2019-01-29T21:35:27.422Z,3.90
2019-01-29T21:37:56.004Z,3.70
2019-01-29T21:40:24.646Z,3.60
2019-01-29T21:42:53.067Z,3.40
2019-01-29T21:45:22.955Z,2.83
2019-01-29T21:47:52.605Z,3.25
2019-01-29T21:50:29.494Z,3.58
2019-01-29T21:52:57.985Z,3.27
2019-01-29T21:55:26.901Z,3.70
2019-01-29T21:57:55.493Z,2.85
2019-01-29T22:00:32.527Z,3.27
2019-01-29T22:03:01.226Z,3.27
2019-01-29T22:05:29.934Z,4.53
2019-01-29T22:07:58.355Z,3.27
2019-01-29T22:10:26.941Z,4.12
2019-01-29T22:12:55.423Z,3.87
2019-01-29T22:15:25.321Z,3.50
2019-01-29T22:17:54.084Z,3.55
2019-01-29T22:20:26.025Z,4.90
2019-01-29T22:22:55.044Z,4.10
2019-01-29T22:25:24.880Z,4.37
2019-01-29T22:27:53.562Z,3.58
2019-01-29T22:30:30.299Z,3.90
2019-01-29T22:32:58.949Z,4.20
2019-01-29T22:35:27.659Z,4.00
2019-01-29T22:37:56.378Z,3.40
2019-01-29T22:40:29.933Z,4.20
2019-01-29T22:42:59.833Z,3.60
2019-01-29T22:45:28.389Z,3.87
2019-01-29T22:47:56.910Z,4.12
2019-01-29T22:50:34.398Z,3.45
2019-01-29T22:53:03.059Z,4.25
2019-01-29T22:55:31.470Z,4.30
2019-01-29T22:57:59.898Z,3.70
2019-01-29T23:00:51.160Z,3.85
2019-01-29T23:03:44.412Z,4.83
2019-01-29T23:06:35.393Z,3.62
2019-01-29T23:09:07.599Z,3.22
2019-01-29T23:11:36.005Z,3.55
2019-01-29T23:14:05.266Z,3.10
2019-01-29T23:16:33.751Z,3.58
2019-01-29T23:19:02.179Z,3.92
2019-01-29T23:21:30.847Z,3.62
2019-01-29T23:23:59.274Z,4.22
2019-01-29T23:26:27.942Z,3.60
2019-01-29T23:28:56.611Z,4.12
2019-01-29T23:31:25.025Z,4.33
2019-01-29T23:33:53.764Z,4.40
2019-01-29T23:36:22.161Z,4.45
2019-01-29T23:38:50.604Z,5.00
2019-01-29T23:41:19.273Z,5.53
2019-01-29T23:43:47.730Z,4.87
2019-01-29T23:46:16.386Z,4.72
2019-01-29T23:48:44.803Z,5.42
2019-01-29T23:51:13.218Z,5.00
2019-01-29T23:53:41.693Z,5.33
2019-01-29T23:56:10.389Z,4.30
2019-01-29T23:58:38.871Z,5.17
